Terminal Aerodrome Forecast
Issued by NWS

Home | Current Version | Previous Version | Text Only | Print | Product List | Glossary On
Versions: 1 2 3 4 5 6 7 8 9 10 11 12 13 14 15 16 17 18 19 20 21 22 23 24 25 26 27 28 29 30 31 32
000
FTUS45 KLKN 221120
TAFELY
TAF
KELY 221120Z 2212/2312 16009KT P6SM BKN060
     FM221700 19011KT P6SM VCSH SCT040 BKN060
     FM222000 20010G20KT P6SM -SHSN OVC030
     FM230000 19010KT P6SM -SN OVC030
     FM230400 VRB06KT 3SM -SN SCT015 OVC030
     FM231000 31006KT 2SM -SN BR BKN015
      AMD NOT SKED=

USA.gov is the U.S. government's official web portal to all federal, state and local government web resources and services.